createdAt,value
2023-03-29T00:00:19.650Z,2.8748
2023-03-29T00:01:36.135Z,4.4704
2023-03-29T00:01:38.351Z,4.0724
2023-03-29T00:02:33.933Z,2.5525
2023-03-29T00:03:41.133Z,0.3212
2023-03-29T00:04:36.912Z,0.0000
2023-03-29T00:04:47.412Z,0.0000
2023-03-29T00:05:53.123Z,0.0000
2023-03-29T00:07:00.129Z,0.0000
2023-03-29T00:07:45.974Z,0.0000
2023-03-29T00:08:07.229Z,0.0000
2023-03-29T00:09:14.233Z,0.0000
2023-03-29T00:10:21.256Z,0.3188
2023-03-29T00:11:28.221Z,3.5196
2023-03-29T00:12:35.176Z,0.0000
2023-03-29T00:12:56.840Z,0.0000
2023-03-29T00:13:42.160Z,9.2568
2023-03-29T00:14:49.143Z,5.4288
2023-03-29T00:15:55.108Z,4.5499
2023-03-29T00:17:02.358Z,7.6137
2023-03-29T00:18:08.068Z,5.7731
2023-03-29T00:19:02.386Z,3.4942
2023-03-29T00:19:13.690Z,5.7441
2023-03-29T00:19:58.046Z,6.2683
2023-03-29T00:20:20.642Z,6.0890
2023-03-29T00:21:04.991Z,11.8951
2023-03-29T00:21:16.338Z,6.6938
2023-03-29T00:21:27.665Z,5.4240
2023-03-29T00:22:33.384Z,7.0243
2023-03-29T00:23:39.201Z,9.6176
2023-03-29T00:24:24.935Z,9.6057
2023-03-29T00:24:47.591Z,10.8787
2023-03-29T00:25:54.645Z,10.5709
2023-03-29T00:27:01.757Z,7.6622
2023-03-29T00:28:07.856Z,3.8240
2023-03-29T00:29:14.769Z,8.0553
2023-03-29T00:29:37.408Z,10.8855
2023-03-29T00:30:21.734Z,4.1709
2023-03-29T00:31:28.825Z,9.9250
2023-03-29T00:32:34.547Z,6.0777
2023-03-29T00:32:44.528Z,8.3109
2023-03-29T00:33:40.168Z,12.1661
2023-03-29T00:34:47.138Z,13.1324
2023-03-29T00:35:54.165Z,2.2421
2023-03-29T00:36:59.805Z,5.4374
2023-03-29T00:38:05.399Z,7.3807
2023-03-29T00:39:12.320Z,8.9836
2023-03-29T00:40:18.427Z,4.8768
2023-03-29T00:41:03.842Z,6.4049
2023-03-29T00:41:24.383Z,6.9762
2023-03-29T00:42:31.352Z,3.1923
2023-03-29T00:43:05.349Z,6.7097
2023-03-29T00:43:38.387Z,7.6649
2023-03-29T00:44:12.403Z,7.6507
2023-03-29T00:44:45.413Z,9.2978
2023-03-29T00:45:52.482Z,10.8452
2023-03-29T00:46:15.181Z,10.8624
2023-03-29T00:46:58.486Z,10.5364
2023-03-29T00:48:05.557Z,7.9814
2023-03-29T00:49:11.223Z,10.2361
2023-03-29T00:49:22.561Z,9.8900
2023-03-29T00:50:18.190Z,7.3650
2023-03-29T00:50:28.579Z,6.9863
2023-03-29T00:51:25.117Z,8.0189
2023-03-29T00:52:31.225Z,6.2629
2023-03-29T00:53:38.280Z,6.2950
2023-03-29T00:54:45.269Z,5.4384
2023-03-29T00:55:52.301Z,7.6494
2023-03-29T00:56:58.182Z,10.5346
2023-03-29T00:57:42.577Z,6.6115
2023-03-29T00:58:05.233Z,11.8063
2023-03-29T00:59:12.216Z,8.9258
2023-03-29T01:00:19.341Z,6.7062
2023-03-29T01:01:26.446Z,4.4747
2023-03-29T01:02:30.915Z,7.5169
2023-03-29T01:03:38.228Z,4.1761
2023-03-29T01:04:00.084Z,4.4902
2023-03-29T01:04:43.068Z,8.7540
2023-03-29T01:05:49.942Z,9.4388
2023-03-29T01:06:56.973Z,10.8883
2023-03-29T01:07:07.127Z,8.8960
2023-03-29T01:08:01.647Z,7.3436
2023-03-29T01:09:10.037Z,7.9899
2023-03-29T01:09:44.032Z,9.6014
2023-03-29T01:10:17.040Z,5.7792
2023-03-29T01:11:24.074Z,7.0224
2023-03-29T01:12:19.718Z,7.3624
2023-03-29T01:12:31.001Z,8.6146
2023-03-29T01:13:38.058Z,3.8419
2023-03-29T01:14:45.070Z,7.0560
2023-03-29T01:15:52.137Z,2.8822
2023-03-29T01:16:56.984Z,0.0000
2023-03-29T01:17:31.076Z,1.9145
2023-03-29T01:18:03.003Z,3.7516
2023-03-29T01:18:35.609Z,3.8474
2023-03-29T01:19:08.745Z,0.6398
2023-03-29T01:20:04.209Z,7.4434
2023-03-29T01:20:15.528Z,9.2625
2023-03-29T01:20:38.216Z,7.0094
2023-03-29T01:21:11.080Z,3.8395
2023-03-29T01:21:22.422Z,6.0739
2023-03-29T01:22:17.975Z,3.8395
2023-03-29T01:22:29.283Z,6.0494
2023-03-29T01:23:24.862Z,7.3462
2023-03-29T01:23:36.184Z,9.9057
2023-03-29T01:23:47.598Z,6.4004
2023-03-29T01:24:30.456Z,6.0643
2023-03-29T01:24:41.819Z,4.7956
2023-03-29T01:25:37.336Z,4.4850
2023-03-29T01:25:48.669Z,3.8392
2023-03-29T01:26:44.161Z,1.5939
2023-03-29T01:26:55.481Z,3.5159
2023-03-29T01:27:50.950Z,6.0637
2023-03-29T01:28:02.291Z,5.1036
2023-03-29T01:28:57.712Z,3.5152
2023-03-29T01:30:04.664Z,5.1122
2023-03-29T01:31:10.744Z,0.0000
2023-03-29T01:32:07.357Z,4.4830
2023-03-29T01:32:17.889Z,4.4594
2023-03-29T01:33:24.862Z,2.2457
2023-03-29T01:34:31.871Z,3.1937
2023-03-29T01:35:05.879Z,2.8736
2023-03-29T01:35:39.118Z,0.0000
2023-03-29T01:36:44.793Z,0.0000
2023-03-29T01:37:07.411Z,0.3204
2023-03-29T01:37:51.666Z,0.0000
2023-03-29T01:38:58.680Z,0.0000
2023-03-29T01:40:05.621Z,5.1199
2023-03-29T01:40:27.316Z,6.6377
2023-03-29T01:41:12.632Z,5.0978
2023-03-29T01:42:19.669Z,4.4657
2023-03-29T01:43:26.556Z,0.0000
2023-03-29T01:44:33.460Z,0.0000
2023-03-29T01:45:40.484Z,1.9184
2023-03-29T01:46:46.317Z,8.0047
2023-03-29T01:47:53.329Z,6.4140
2023-03-29T01:48:47.490Z,4.7999
2023-03-29T01:48:58.831Z,4.8028
2023-03-29T01:50:05.721Z,0.3200
2023-03-29T01:51:12.619Z,6.4026
2023-03-29T01:52:19.644Z,2.8743
2023-03-29T01:53:26.640Z,0.0000
2023-03-29T01:53:59.646Z,0.0000
2023-03-29T01:54:32.809Z,3.3818
2023-03-29T01:55:38.230Z,1.0645
2023-03-29T01:55:49.572Z,3.5121
2023-03-29T01:56:46.530Z,1.5939
2023-03-29T01:56:57.905Z,0.3189
2023-03-29T01:57:52.112Z,3.6203
2023-03-29T01:58:03.442Z,5.1014
2023-03-29T01:58:26.122Z,5.1072
2023-03-29T01:59:00.339Z,1.9233
2023-03-29T01:59:11.655Z,0.6392
2023-03-29T02:00:07.247Z,2.8769
2023-03-29T02:00:18.580Z,4.1544
2023-03-29T02:01:14.214Z,4.7910
2023-03-29T02:01:25.596Z,2.2221
2023-03-29T02:02:21.174Z,0.0000
2023-03-29T02:02:31.186Z,0.0000
2023-03-29T02:03:27.001Z,1.5973
2023-03-29T02:03:37.363Z,0.6888
2023-03-29T02:04:32.938Z,0.0000
2023-03-29T02:05:28.590Z,4.4759
2023-03-29T02:05:39.916Z,5.1126
2023-03-29T02:06:45.949Z,0.0000
2023-03-29T02:07:31.183Z,0.0000
2023-03-29T02:07:52.944Z,0.0000
2023-03-29T02:08:58.430Z,0.3206
2023-03-29T02:10:05.506Z,0.0000
2023-03-29T02:11:11.350Z,0.0000
2023-03-29T02:12:18.421Z,0.0000
2023-03-29T02:13:25.590Z,1.9157
2023-03-29T02:14:32.619Z,2.2435
2023-03-29T02:15:39.749Z,0.0000
2023-03-29T02:16:45.473Z,0.0000
2023-03-29T02:16:55.859Z,0.0000
2023-03-29T02:17:53.195Z,0.0000
2023-03-29T02:18:58.936Z,0.0000
2023-03-29T02:19:44.283Z,0.0000
2023-03-29T02:20:06.038Z,0.0000
2023-03-29T02:21:13.082Z,0.0000
2023-03-29T02:22:20.178Z,0.0000
2023-03-29T02:23:27.224Z,0.0000
2023-03-29T02:24:00.118Z,0.0000
2023-03-29T02:24:11.475Z,0.0000
2023-03-29T02:24:34.228Z,0.0000
2023-03-29T02:25:05.749Z,0.0000
2023-03-29T02:25:39.937Z,0.0000
2023-03-29T02:26:11.398Z,2.8751
2023-03-29T02:26:45.383Z,0.0000
2023-03-29T02:27:18.269Z,0.0000
2023-03-29T02:27:52.301Z,0.0000
2023-03-29T02:28:25.197Z,2.8736
2023-03-29T02:29:32.262Z,0.6400
2023-03-29T02:30:28.003Z,1.5978
2023-03-29T02:30:39.361Z,0.9564
2023-03-29T02:31:48.523Z,2.8700
2023-03-29T02:32:31.556Z,3.5072
2023-03-29T02:32:54.322Z,1.6011
2023-03-29T02:34:02.052Z,0.0000
2023-03-29T02:34:57.294Z,0.0000
2023-03-29T02:35:07.725Z,0.0000
2023-03-29T02:35:40.386Z,4.4676
2023-03-29T02:36:15.018Z,0.6383
2023-03-29T02:36:58.950Z,0.3199
2023-03-29T02:37:20.671Z,0.0000
2023-03-29T02:38:27.885Z,0.3178
2023-03-29T02:39:34.955Z,0.6396
2023-03-29T02:40:42.006Z,0.0000
2023-03-29T02:40:53.351Z,0.0000
2023-03-29T02:41:49.018Z,0.0000
2023-03-29T02:42:56.159Z,0.0000
2023-03-29T02:43:07.765Z,0.0000
2023-03-29T02:44:03.064Z,0.0000
2023-03-29T02:45:10.550Z,0.0000
2023-03-29T02:46:05.836Z,0.0000
2023-03-29T02:46:16.401Z,0.0000
2023-03-29T02:47:23.513Z,0.0000
2023-03-29T02:48:08.839Z,0.0000
2023-03-29T02:48:30.611Z,0.0000
2023-03-29T02:49:37.729Z,0.0000
2023-03-29T02:50:44.961Z,0.0000
2023-03-29T02:51:53.002Z,0.0000
2023-03-29T02:53:00.043Z,0.0000
2023-03-29T02:54:07.144Z,3.1895
2023-03-29T02:54:52.932Z,6.7275
2023-03-29T02:55:15.612Z,5.1090
2023-03-29T02:56:21.628Z,0.0000
2023-03-29T02:57:28.791Z,0.0000
2023-03-29T02:58:35.990Z,0.0000
2023-03-29T02:59:43.023Z,0.0000
2023-03-29T02:59:54.353Z,0.6392
2023-03-29T03:00:50.126Z,1.9227
2023-03-29T03:01:58.787Z,0.6390
2023-03-29T03:02:43.404Z,0.0000
2023-03-29T03:03:04.920Z,0.3190
2023-03-29T03:04:11.153Z,0.0000
2023-03-29T03:05:16.833Z,0.0000
2023-03-29T03:05:49.874Z,0.0000
2023-03-29T03:06:23.959Z,0.0000
2023-03-29T03:06:57.021Z,0.0000
2023-03-29T03:07:30.049Z,0.0000
2023-03-29T03:08:26.750Z,3.1951
2023-03-29T03:08:36.985Z,3.1835
2023-03-29T03:09:44.118Z,0.0000
2023-03-29T03:10:29.765Z,0.0000
2023-03-29T03:10:51.037Z,0.0000
2023-03-29T03:11:55.665Z,3.9273
2023-03-29T03:12:06.993Z,4.1423
2023-03-29T03:12:29.666Z,4.4783
2023-03-29T03:13:02.758Z,4.1387
2023-03-29T03:14:08.515Z,3.4970
2023-03-29T03:14:31.238Z,2.8718
2023-03-29T03:15:15.725Z,0.0000
2023-03-29T03:16:22.889Z,0.0000
2023-03-29T03:16:32.959Z,0.3565
2023-03-29T03:17:17.471Z,0.0000
2023-03-29T03:17:28.857Z,0.0000
2023-03-29T03:18:36.330Z,0.0000
2023-03-29T03:19:42.064Z,0.0000
2023-03-29T03:20:50.540Z,4.1409
2023-03-29T03:21:02.509Z,2.8678
2023-03-29T03:21:57.096Z,3.1889
2023-03-29T03:22:31.087Z,3.8311
2023-03-29T03:23:04.145Z,0.3200
2023-03-29T03:23:38.182Z,0.0000
2023-03-29T03:24:11.321Z,0.0000
2023-03-29T03:24:44.241Z,0.0000
2023-03-29T03:25:18.266Z,1.5901
2023-03-29T03:25:51.087Z,0.3645
2023-03-29T03:26:25.111Z,2.5507
2023-03-29T03:26:58.002Z,0.6382
2023-03-29T03:27:32.282Z,0.0000
2023-03-29T03:28:03.966Z,2.2307
2023-03-29T03:28:37.939Z,2.5660
2023-03-29T03:29:11.016Z,5.1023
2023-03-29T03:29:45.495Z,7.6723
2023-03-29T03:30:18.199Z,6.8573
2023-03-29T03:30:49.877Z,8.0638
2023-03-29T03:31:23.950Z,7.3410
2023-03-29T03:32:31.134Z,6.3998
2023-03-29T03:33:38.247Z,6.4038
2023-03-29T03:34:45.320Z,3.5180
2023-03-29T03:35:51.582Z,8.3067
2023-03-29T03:36:57.196Z,2.0959
2023-03-29T03:38:04.295Z,2.5556
2023-03-29T03:39:11.331Z,4.8050
2023-03-29T03:40:18.448Z,5.4240
2023-03-29T03:40:52.440Z,5.4432
2023-03-29T03:41:25.359Z,9.5989
2023-03-29T03:42:32.488Z,7.9842
2023-03-29T03:43:38.716Z,2.5509
2023-03-29T03:44:12.057Z,0.0000
2023-03-29T03:44:23.411Z,0.0000
2023-03-29T03:44:46.099Z,0.6383
2023-03-29T03:45:54.704Z,0.0000
2023-03-29T03:46:29.682Z,6.3778
2023-03-29T03:47:00.115Z,6.6441
2023-03-29T03:48:07.347Z,3.6580
2023-03-29T03:49:11.785Z,0.0000
2023-03-29T03:50:18.875Z,1.2761
2023-03-29T03:51:25.890Z,5.4317
2023-03-29T03:52:34.466Z,4.4598
2023-03-29T03:53:41.550Z,7.9716
2023-03-29T03:54:48.595Z,0.3182
2023-03-29T03:55:55.756Z,5.7335
2023-03-29T03:56:06.150Z,6.6179
2023-03-29T03:56:17.522Z,2.5466
2023-03-29T03:57:02.936Z,5.4384
2023-03-29T03:58:09.082Z,3.1390
2023-03-29T03:59:14.887Z,0.0000
2023-03-29T04:00:22.024Z,9.5912
2023-03-29T04:01:27.843Z,7.5958
2023-03-29T04:02:34.972Z,8.6146
2023-03-29T04:03:08.962Z,7.2934
2023-03-29T04:03:40.450Z,7.6662
2023-03-29T04:04:12.230Z,6.2786
2023-03-29T04:04:44.866Z,2.5473
2023-03-29T04:05:52.138Z,0.6366
2023-03-29T04:06:59.167Z,4.4858
2023-03-29T04:08:06.136Z,8.3190
2023-03-29T04:08:16.572Z,7.2864
2023-03-29T04:09:13.683Z,0.9245
2023-03-29T04:09:23.655Z,0.7299
2023-03-29T04:10:19.410Z,0.0000
2023-03-29T04:11:27.882Z,0.6371
2023-03-29T04:12:34.987Z,7.6628
2023-03-29T04:13:41.992Z,7.3520
2023-03-29T04:14:37.803Z,5.1108
2023-03-29T04:14:49.156Z,6.6773
2023-03-29T04:15:22.298Z,3.8377
2023-03-29T04:15:54.960Z,2.8746
2023-03-29T04:16:26.765Z,2.7739
2023-03-29T04:16:59.432Z,6.0718
2023-03-29T04:17:43.982Z,7.6420
2023-03-29T04:18:05.465Z,7.6757
2023-03-29T04:19:11.277Z,9.8874
2023-03-29T04:20:17.166Z,7.3397
2023-03-29T04:21:23.277Z,4.5402
2023-03-29T04:22:30.527Z,6.9401
2023-03-29T04:23:26.157Z,8.1086
2023-03-29T04:23:37.518Z,12.0998
2023-03-29T04:24:00.230Z,5.7345
2023-03-29T04:24:31.874Z,5.6534
2023-03-29T04:24:43.270Z,6.3549
2023-03-29T04:25:37.518Z,7.0094
2023-03-29T04:25:48.880Z,10.5179
2023-03-29T04:26:44.462Z,4.4641
2023-03-29T04:26:55.808Z,4.4759
2023-03-29T04:27:07.156Z,7.3364
2023-03-29T04:27:51.359Z,15.6574
2023-03-29T04:28:02.716Z,14.3742
2023-03-29T04:28:58.343Z,6.0728
2023-03-29T04:29:09.677Z,8.9117
2023-03-29T04:30:03.873Z,7.9543
2023-03-29T04:30:15.200Z,4.4582
2023-03-29T04:31:10.812Z,7.9969
2023-03-29T04:31:20.816Z,7.5920
2023-03-29T04:32:15.030Z,4.7999
2023-03-29T04:32:26.402Z,5.4226
2023-03-29T04:32:36.696Z,9.1868
2023-03-29T04:33:20.641Z,8.9907
2023-03-29T04:33:32.030Z,6.6914
2023-03-29T04:34:27.726Z,8.6033
2023-03-29T04:34:38.117Z,9.0032
2023-03-29T04:35:33.666Z,7.6805
2023-03-29T04:36:29.409Z,7.6757
2023-03-29T04:36:39.768Z,8.0467
2023-03-29T04:37:36.509Z,5.1072
2023-03-29T04:37:46.987Z,5.8828
2023-03-29T04:38:47.347Z,5.9504
2023-03-29T04:39:48.660Z,11.3615
2023-03-29T04:40:44.481Z,4.5398
2023-03-29T04:40:55.833Z,4.7796
2023-03-29T04:41:41.636Z,3.9866
2023-03-29T04:42:04.293Z,1.5997
2023-03-29T04:42:38.287Z,2.2387
2023-03-29T04:43:11.425Z,7.9828
2023-03-29T04:44:18.435Z,7.0330
2023-03-29T04:45:25.660Z,4.4582
2023-03-29T04:46:31.441Z,7.6723
2023-03-29T04:47:37.231Z,4.4771
2023-03-29T04:48:44.909Z,1.8334
2023-03-29T04:49:41.643Z,3.5029
2023-03-29T04:49:52.035Z,6.2774
2023-03-29T04:50:59.136Z,6.3711
2023-03-29T04:52:04.923Z,10.8586
2023-03-29T04:53:12.208Z,12.7456
2023-03-29T04:54:17.995Z,14.0548
2023-03-29T04:55:23.631Z,15.6395
2023-03-29T04:56:30.693Z,16.6028
2023-03-29T04:57:37.883Z,17.8438
2023-03-29T04:58:24.424Z,6.3987
2023-03-29T04:58:44.750Z,6.0755
2023-03-29T04:59:52.294Z,12.8840
2023-03-29T05:00:58.082Z,11.4809
2023-03-29T05:02:05.352Z,15.3460
2023-03-29T05:03:11.314Z,11.1298
2023-03-29T05:04:05.726Z,12.7568
2023-03-29T05:04:15.758Z,10.4957
2023-03-29T05:04:37.204Z,10.8099
2023-03-29T05:05:20.320Z,15.5873
2023-03-29T05:06:28.920Z,16.2879
2023-03-29T05:07:36.055Z,11.8302
2023-03-29T05:08:09.220Z,17.1748
2023-03-29T05:08:43.320Z,11.4388
2023-03-29T05:09:47.970Z,16.5941
2023-03-29T05:10:55.969Z,20.3883
2023-03-29T05:11:51.400Z,14.9524
2023-03-29T05:12:01.816Z,13.9096
2023-03-29T05:12:57.647Z,13.8431
2023-03-29T05:13:08.984Z,14.3856
2023-03-29T05:14:16.240Z,11.4670
2023-03-29T05:15:00.889Z,9.2077
2023-03-29T05:15:22.373Z,13.6642
2023-03-29T05:16:03.214Z,9.0358
2023-03-29T05:16:24.212Z,7.6688
2023-03-29T05:17:04.826Z,11.4053
2023-03-29T05:17:16.201Z,7.6292
2023-03-29T05:17:27.769Z,13.3570
2023-03-29T05:18:32.626Z,16.5198
2023-03-29T05:19:37.274Z,9.2138
2023-03-29T05:20:19.127Z,11.1543
2023-03-29T05:20:40.533Z,9.7184
2023-03-29T05:21:16.886Z,14.2338
2023-03-29T05:21:50.411Z,8.6520
2023-03-29T05:22:58.832Z,9.2405
2023-03-29T05:23:20.553Z,9.2601
2023-03-29T05:24:04.955Z,9.4361
2023-03-29T05:25:10.738Z,9.4107
2023-03-29T05:26:16.400Z,9.9136
2023-03-29T05:27:22.158Z,2.5511
2023-03-29T05:28:29.365Z,3.1822
2023-03-29T05:29:36.452Z,2.2354
2023-03-29T05:30:43.831Z,0.3187
2023-03-29T05:31:28.937Z,5.1131
2023-03-29T05:31:50.269Z,5.7466
2023-03-29T05:32:57.456Z,6.6979
2023-03-29T05:33:30.511Z,2.8807
2023-03-29T05:34:04.561Z,5.4336
2023-03-29T05:34:49.098Z,9.2536
2023-03-29T05:35:10.872Z,7.9812
2023-03-29T05:36:15.595Z,8.2877
2023-03-29T05:37:18.748Z,2.8887
2023-03-29T05:38:04.056Z,6.3745
2023-03-29T05:38:25.807Z,6.0595
2023-03-29T05:38:59.941Z,4.4645
2023-03-29T05:39:34.612Z,3.5035
2023-03-29T05:40:39.482Z,3.8307
2023-03-29T05:41:44.959Z,8.3183
2023-03-29T05:42:06.306Z,5.7497
2023-03-29T05:42:50.762Z,4.4665
2023-03-29T05:43:56.489Z,5.4304
2023-03-29T05:45:03.641Z,6.6902
2023-03-29T05:45:13.873Z,6.7226
2023-03-29T05:46:21.164Z,2.9041
2023-03-29T05:47:27.016Z,5.1086
2023-03-29T05:48:21.562Z,7.6072
2023-03-29T05:48:31.510Z,7.2082
2023-03-29T05:48:42.865Z,4.4653
2023-03-29T05:49:38.694Z,6.3649
2023-03-29T05:50:46.206Z,4.7846
2023-03-29T05:51:28.283Z,8.3154
2023-03-29T05:51:51.090Z,4.7851
2023-03-29T05:52:45.551Z,8.9376
2023-03-29T05:52:56.927Z,7.3113
2023-03-29T05:54:04.003Z,6.3790
2023-03-29T05:54:35.742Z,5.1104
2023-03-29T05:54:47.121Z,3.1856
2023-03-29T05:55:09.806Z,3.5140
2023-03-29T05:56:14.690Z,8.2868
2023-03-29T05:57:20.532Z,5.1808
2023-03-29T05:57:41.938Z,6.0621
2023-03-29T05:58:27.839Z,6.6850
2023-03-29T05:59:35.029Z,3.8240
2023-03-29T05:59:57.767Z,7.9583
2023-03-29T06:00:42.117Z,6.3868
2023-03-29T06:01:03.757Z,6.1520
2023-03-29T06:01:47.099Z,6.0643
2023-03-29T06:02:09.834Z,6.0637
2023-03-29T06:02:53.210Z,6.1416
2023-03-29T06:03:20.837Z,5.7199
2023-03-29T06:03:59.741Z,1.9149
2023-03-29T06:04:21.183Z,2.8700
2023-03-29T06:05:17.346Z,6.0515
2023-03-29T06:05:27.720Z,6.6058
2023-03-29T06:06:24.952Z,8.2095
2023-03-29T06:06:34.914Z,5.8315
2023-03-29T06:07:30.786Z,4.4772
2023-03-29T06:07:42.178Z,4.7724
2023-03-29T06:08:38.145Z,2.2305
2023-03-29T06:08:48.144Z,3.5994
2023-03-29T06:09:42.511Z,2.8715
2023-03-29T06:09:53.870Z,4.7804
2023-03-29T06:10:26.768Z,6.3626
2023-03-29T06:10:49.452Z,6.0691
2023-03-29T06:11:03.159Z,7.3332
2023-03-29T06:11:33.635Z,5.9793
2023-03-29T06:11:54.953Z,3.8267
2023-03-29T06:12:06.379Z,2.5511
2023-03-29T06:12:39.418Z,8.5972
2023-03-29T06:13:00.724Z,6.3851
2023-03-29T06:13:12.094Z,5.7335
2023-03-29T06:13:43.684Z,6.8614
2023-03-29T06:14:06.379Z,9.5533
2023-03-29T06:14:17.791Z,12.7501
2023-03-29T06:14:50.778Z,5.0674
2023-03-29T06:15:13.725Z,6.3942
2023-03-29T06:15:23.678Z,7.7871
2023-03-29T06:15:56.702Z,7.6386
2023-03-29T06:16:19.450Z,5.4259
2023-03-29T06:17:02.659Z,6.0419
2023-03-29T06:17:24.095Z,7.0101
2023-03-29T06:18:07.606Z,1.9164
2023-03-29T06:18:29.003Z,6.6950
2023-03-29T06:19:13.482Z,7.0057
2023-03-29T06:19:35.255Z,10.4232
2023-03-29T06:20:20.766Z,9.8691
2023-03-29T06:21:29.361Z,9.8891
2023-03-29T06:21:39.773Z,13.2676
2023-03-29T06:22:14.911Z,7.6500
2023-03-29T06:22:35.537Z,7.6598
2023-03-29T06:23:42.827Z,10.1970
2023-03-29T06:24:48.848Z,9.2284
2023-03-29T06:25:58.411Z,5.7395
2023-03-29T06:26:54.337Z,6.6950
2023-03-29T06:27:04.353Z,7.2362
2023-03-29T06:27:27.080Z,12.7310
2023-03-29T06:28:11.612Z,11.4599
2023-03-29T06:29:18.766Z,8.6154
2023-03-29T06:30:25.430Z,6.4015
2023-03-29T06:31:30.291Z,7.2348
2023-03-29T06:32:37.054Z,6.4666
2023-03-29T06:33:09.793Z,0.3183
2023-03-29T06:33:41.475Z,7.0025
2023-03-29T06:34:47.584Z,14.4247
2023-03-29T06:35:53.376Z,6.3930
2023-03-29T06:36:14.758Z,6.3750
2023-03-29T06:36:26.102Z,7.9520
2023-03-29T06:36:59.235Z,13.3570
2023-03-29T06:38:06.473Z,9.8856
2023-03-29T06:39:13.576Z,10.5003
2023-03-29T06:40:20.859Z,7.3313
2023-03-29T06:41:28.036Z,9.2381
2023-03-29T06:42:36.585Z,7.9800
2023-03-29T06:43:32.419Z,9.2699
2023-03-29T06:43:42.803Z,11.8562
2023-03-29T06:44:51.384Z,8.9180
2023-03-29T06:45:36.848Z,14.9721
2023-03-29T06:45:58.643Z,10.5327
2023-03-29T06:47:04.764Z,9.5575
2023-03-29T06:48:11.990Z,9.2340
2023-03-29T06:49:17.877Z,6.3767
2023-03-29T06:50:23.584Z,5.4183
2023-03-29T06:51:30.715Z,9.2259
2023-03-29T06:51:52.483Z,7.3345
2023-03-29T06:52:37.921Z,6.6761
2023-03-29T06:53:44.090Z,7.3173
2023-03-29T06:54:41.511Z,10.2638
2023-03-29T06:54:51.625Z,8.7315
2023-03-29T06:55:57.409Z,8.6010
2023-03-29T06:56:43.282Z,6.1285
2023-03-29T06:57:04.639Z,11.8146
2023-03-29T06:58:10.773Z,7.0076
2023-03-29T06:59:19.410Z,12.7209
2023-03-29T07:00:25.441Z,10.8461
2023-03-29T07:00:45.980Z,11.7813
2023-03-29T07:01:30.189Z,9.2560
2023-03-29T07:02:36.102Z,7.0138
2023-03-29T07:02:46.546Z,5.8437
2023-03-29T07:03:19.265Z,8.2824
2023-03-29T07:03:43.171Z,12.7467
2023-03-29T07:04:48.836Z,8.6429
2023-03-29T07:05:54.651Z,8.3051
2023-03-29T07:06:50.472Z,8.0289
2023-03-29T07:07:01.919Z,10.1991
2023-03-29T07:08:07.743Z,4.7808
2023-03-29T07:09:13.697Z,3.1895
2023-03-29T07:10:20.843Z,7.0101
2023-03-29T07:10:54.105Z,5.5880
2023-03-29T07:11:26.797Z,4.4609
2023-03-29T07:11:38.144Z,2.2293
2023-03-29T07:12:35.381Z,5.4116
2023-03-29T07:13:42.817Z,0.0000
2023-03-29T07:14:49.299Z,2.7700
2023-03-29T07:15:55.068Z,5.5869
2023-03-29T07:16:50.927Z,3.8259
2023-03-29T07:17:02.296Z,3.1856
2023-03-29T07:18:09.514Z,5.7502
2023-03-29T07:19:16.712Z,9.8665
2023-03-29T07:20:02.578Z,6.0632
2023-03-29T07:20:25.305Z,0.3186
2023-03-29T07:20:58.426Z,1.3910
2023-03-29T07:21:32.495Z,0.3195
2023-03-29T07:22:39.679Z,2.2315
2023-03-29T07:23:48.288Z,0.0000
2023-03-29T07:24:54.478Z,1.7415
2023-03-29T07:25:05.856Z,2.8723
2023-03-29T07:26:03.192Z,2.8685
2023-03-29T07:27:09.194Z,0.0000
2023-03-29T07:28:16.451Z,1.5928
2023-03-29T07:29:23.608Z,0.0000
2023-03-29T07:30:31.872Z,0.0000
2023-03-29T07:31:38.647Z,2.5478
2023-03-29T07:32:11.793Z,2.2250
2023-03-29T07:32:44.638Z,0.0000
2023-03-29T07:33:28.180Z,0.0000
2023-03-29T07:33:49.786Z,0.9545
2023-03-29T07:34:56.456Z,0.0000
2023-03-29T07:36:03.708Z,0.0000
2023-03-29T07:36:36.410Z,0.6364
2023-03-29T07:37:09.535Z,0.9561
2023-03-29T07:38:06.764Z,0.0000
2023-03-29T07:38:18.099Z,0.0000
2023-03-29T07:39:23.752Z,0.0000
2023-03-29T07:40:30.941Z,0.6378
2023-03-29T07:41:36.792Z,0.0000
2023-03-29T07:41:48.142Z,0.0000
2023-03-29T07:42:43.969Z,0.6385
2023-03-29T07:43:51.135Z,5.4226
2023-03-29T07:44:57.345Z,1.7442
2023-03-29T07:46:04.617Z,0.0000
2023-03-29T07:46:37.393Z,0.0000
2023-03-29T07:47:10.561Z,0.0000
2023-03-29T07:47:44.681Z,0.0000
2023-03-29T07:48:16.520Z,0.0000
2023-03-29T07:48:26.503Z,0.7221
2023-03-29T07:48:49.248Z,5.0991
2023-03-29T07:49:22.447Z,9.8509
2023-03-29T07:49:55.228Z,7.9513
2023-03-29T07:50:28.335Z,0.3184
2023-03-29T07:51:01.866Z,0.0000
2023-03-29T07:52:08.011Z,0.3638
2023-03-29T07:52:30.784Z,0.6354
2023-03-29T07:53:15.317Z,0.6362
2023-03-29T07:54:22.615Z,0.0000
2023-03-29T07:55:29.814Z,3.1833
2023-03-29T07:56:37.128Z,6.0654
2023-03-29T07:57:44.568Z,3.5050
2023-03-29T07:58:27.776Z,3.1844
2023-03-29T07:58:49.124Z,3.8264
2023-03-29T07:59:57.747Z,2.8741
2023-03-29T08:01:03.241Z,8.6971
2023-03-29T08:01:36.367Z,7.9548
2023-03-29T08:02:09.525Z,4.1797
2023-03-29T08:03:16.941Z,5.0861
2023-03-29T08:04:21.726Z,6.1514
2023-03-29T08:04:43.178Z,4.4551
2023-03-29T08:05:39.902Z,3.1797
2023-03-29T08:06:32.568Z,1.9056
2023-03-29T08:06:43.958Z,3.8200
2023-03-29T08:07:28.482Z,4.7893
2023-03-29T08:07:39.874Z,2.5411
2023-03-29T08:07:51.247Z,0.9547
2023-03-29T08:08:34.397Z,3.2560
2023-03-29T08:08:57.144Z,3.4973
2023-03-29T08:09:41.688Z,2.5446
2023-03-29T08:10:04.883Z,0.0000
2023-03-29T08:10:50.337Z,2.2297
2023-03-29T08:11:12.536Z,3.6785
2023-03-29T08:11:58.036Z,1.9115
2023-03-29T08:12:19.776Z,9.2397
2023-03-29T08:13:05.687Z,0.6136
2023-03-29T08:14:12.865Z,6.9689
2023-03-29T08:15:07.477Z,0.3470
2023-03-29T08:15:17.453Z,0.0000
2023-03-29T08:16:23.504Z,6.5035
2023-03-29T08:17:29.934Z,3.8176
2023-03-29T08:18:13.159Z,1.7289
2023-03-29T08:18:34.981Z,0.0000
2023-03-29T08:19:42.437Z,0.3179
2023-03-29T08:20:48.651Z,0.3182
2023-03-29T08:21:00.136Z,0.3182
2023-03-29T08:21:22.206Z,0.0000
2023-03-29T08:22:08.143Z,0.0000
2023-03-29T08:22:52.260Z,0.0000
2023-03-29T08:23:14.028Z,0.0000
2023-03-29T08:23:25.406Z,0.0000
2023-03-29T08:24:20.800Z,0.0000
2023-03-29T08:25:25.561Z,2.8652
2023-03-29T08:26:34.298Z,2.2254
2023-03-29T08:27:41.639Z,2.8640
2023-03-29T08:28:37.515Z,2.2246
2023-03-29T08:28:48.899Z,4.1434
2023-03-29T08:29:57.561Z,0.0000
2023-03-29T08:30:42.097Z,0.0000
2023-03-29T08:31:03.726Z,0.3189
2023-03-29T08:32:11.854Z,0.3041
2023-03-29T08:33:15.136Z,0.0000
2023-03-29T08:33:36.530Z,0.0000
2023-03-29T08:34:18.332Z,2.0937
2023-03-29T08:34:52.545Z,0.0000
2023-03-29T08:35:25.698Z,7.0064
2023-03-29T08:36:33.040Z,0.9552
2023-03-29T08:36:55.766Z,3.4980
2023-03-29T08:37:38.984Z,2.8867
2023-03-29T08:38:46.314Z,4.7758
2023-03-29T08:39:52.138Z,3.5115
2023-03-29T08:40:03.512Z,5.4183
2023-03-29T08:41:00.963Z,1.5907
2023-03-29T08:42:07.207Z,2.8635
2023-03-29T08:43:14.843Z,5.5231
2023-03-29T08:44:20.735Z,1.0445
2023-03-29T08:45:16.625Z,3.8395
2023-03-29T08:45:27.992Z,4.1361
2023-03-29T08:46:35.863Z,0.3186
2023-03-29T08:47:40.637Z,6.0414
2023-03-29T08:48:23.877Z,5.2031
2023-03-29T08:48:46.624Z,5.0955
2023-03-29T08:49:53.960Z,1.5905
2023-03-29T08:50:27.070Z,6.2098
2023-03-29T08:51:01.510Z,0.0000
2023-03-29T08:52:06.570Z,1.0852
2023-03-29T08:53:13.840Z,1.5945
2023-03-29T08:54:21.160Z,0.0000
2023-03-29T08:55:27.099Z,3.8391
2023-03-29T08:56:34.211Z,2.5480
2023-03-29T08:56:43.302Z,5.3297
2023-03-29T08:57:37.881Z,7.6507
2023-03-29T08:58:44.026Z,8.5401
2023-03-29T08:59:51.280Z,9.5399
2023-03-29T09:00:58.522Z,7.9387
2023-03-29T09:01:54.458Z,6.0430
2023-03-29T09:02:05.937Z,6.0462
2023-03-29T09:03:12.027Z,5.7350
2023-03-29T09:04:18.189Z,8.3029
2023-03-29T09:05:01.363Z,12.7288
2023-03-29T09:05:24.539Z,7.3511
2023-03-29T09:06:31.836Z,8.0065
2023-03-29T09:07:05.944Z,2.2350
2023-03-29T09:07:28.331Z,7.2210
2023-03-29T09:07:39.701Z,8.9203
2023-03-29T09:08:44.891Z,2.7106
2023-03-29T09:09:29.409Z,8.0180
2023-03-29T09:09:52.198Z,5.7219
2023-03-29T09:10:13.564Z,5.7269
2023-03-29T09:10:58.149Z,4.4512
2023-03-29T09:11:31.316Z,5.2251
2023-03-29T09:12:05.435Z,12.0828
2023-03-29T09:13:11.373Z,5.4078
2023-03-29T09:14:17.267Z,4.3443
2023-03-29T09:15:24.566Z,4.4562
2023-03-29T09:16:31.031Z,8.6760
2023-03-29T09:17:37.310Z,5.4501
2023-03-29T09:18:43.255Z,6.3605
2023-03-29T09:19:52.029Z,7.9415
2023-03-29T09:20:59.437Z,8.5844